createdAt,value
2017-08-18T07:29:26.831Z,86.00
2017-08-18T07:32:28.226Z,84.00
2017-08-18T07:35:29.623Z,84.90
2017-08-18T07:38:30.979Z,84.70
2017-08-18T07:41:32.360Z,86.00
2017-08-18T07:44:33.719Z,86.30
2017-08-18T07:47:35.131Z,85.80
2017-08-18T07:50:36.499Z,85.20
2017-08-18T07:53:37.875Z,85.00
2017-08-18T07:56:39.227Z,85.70
2017-08-18T07:59:40.626Z,86.30
2017-08-18T08:02:42.313Z,85.40
2017-08-18T08:05:43.655Z,84.00
2017-08-18T08:08:45.040Z,84.20
2017-08-18T08:11:46.412Z,83.30
2017-08-18T08:14:48.537Z,83.60
2017-08-18T08:17:49.911Z,84.30
2017-08-18T08:20:51.289Z,84.60
2017-08-18T08:23:52.623Z,83.00
2017-08-18T08:26:54.043Z,82.80
2017-08-18T08:29:55.380Z,84.50
2017-08-18T08:32:56.720Z,84.10
2017-08-18T08:35:58.092Z,84.10
2017-08-18T08:38:59.455Z,85.30
2017-08-18T08:42:00.846Z,84.60
2017-08-18T08:45:02.221Z,84.90
2017-08-18T08:48:03.619Z,84.10
2017-08-18T08:51:05.015Z,84.30
2017-08-18T08:54:06.409Z,84.50
2017-08-18T08:57:08.008Z,84.10
2017-08-18T09:00:09.388Z,84.10
2017-08-18T09:03:10.764Z,84.60
2017-08-18T09:06:12.101Z,83.80
2017-08-18T09:09:13.496Z,83.60
2017-08-18T09:12:14.970Z,83.00
2017-08-18T09:15:16.339Z,83.10
2017-08-18T09:18:17.695Z,82.80
2017-08-18T09:21:19.058Z,83.60
2017-08-18T09:24:20.446Z,83.70
2017-08-18T09:27:22.568Z,83.60
2017-08-18T09:30:24.356Z,83.60
2017-08-18T09:33:25.737Z,83.00
2017-08-18T09:36:27.188Z,82.80
2017-08-18T09:39:29.307Z,83.30
2017-08-18T09:42:30.751Z,83.30
2017-08-18T09:45:32.109Z,82.40
2017-08-18T09:48:51.959Z,83.00
2017-08-18T09:52:12.188Z,83.00
2017-08-18T09:55:31.936Z,82.20
2017-08-18T09:58:51.680Z,83.10
2017-08-18T10:01:53.791Z,82.10
2017-08-18T10:04:55.190Z,82.00
2017-08-18T10:07:56.552Z,83.10
2017-08-18T10:10:58.713Z,82.00
2017-08-18T10:14:00.125Z,81.90
2017-08-18T10:17:01.555Z,83.30
2017-08-18T10:20:03.015Z,82.80
2017-08-18T10:23:04.421Z,82.40
2017-08-18T10:26:06.584Z,83.40
2017-08-18T10:29:07.984Z,82.90
2017-08-18T10:32:09.415Z,83.50
2017-08-18T10:35:10.801Z,83.10
2017-08-18T10:38:12.208Z,83.90
2017-08-18T10:41:13.603Z,84.30
2017-08-18T10:44:14.983Z,85.20
2017-08-18T10:47:16.748Z,83.10
2017-08-18T10:50:18.124Z,82.60
2017-08-18T10:53:19.503Z,84.00
2017-08-18T10:56:21.601Z,84.80
2017-08-18T10:59:22.987Z,84.70
2017-08-18T11:02:24.341Z,84.10
2017-08-18T11:05:25.704Z,84.70
2017-08-18T11:08:27.863Z,82.60
2017-08-18T11:11:29.235Z,82.60
2017-08-18T11:14:31.348Z,86.00
2017-08-18T11:17:32.733Z,86.00
2017-08-18T11:20:34.232Z,82.70
2017-08-18T11:23:35.565Z,80.80
2017-08-18T11:26:36.935Z,82.60
2017-08-18T11:29:38.341Z,83.60
2017-08-18T11:32:39.760Z,82.80
2017-08-18T11:35:41.130Z,82.00
2017-08-18T11:38:42.516Z,82.10
2017-08-18T11:41:43.889Z,84.40
2017-08-18T11:44:45.299Z,84.30
2017-08-18T11:47:46.661Z,86.50
2017-08-18T11:50:48.042Z,85.20
2017-08-18T11:53:49.424Z,84.10
2017-08-18T11:56:50.744Z,86.70
2017-08-18T11:59:52.161Z,87.00
2017-08-18T12:02:53.499Z,84.80
2017-08-18T12:05:54.932Z,86.00
2017-08-18T12:08:56.599Z,85.90
2017-08-18T12:11:57.924Z,86.70
2017-08-18T12:15:00.387Z,87.00
2017-08-18T12:18:01.735Z,86.90
2017-08-18T12:21:03.200Z,86.50
2017-08-18T12:27:19.548Z,82.40
2017-08-18T12:30:20.864Z,82.30
2017-08-18T12:33:22.231Z,82.30
2017-08-18T12:36:23.900Z,83.90
2017-08-18T12:39:25.316Z,85.10
2017-08-18T12:42:26.736Z,85.80
2017-08-18T12:45:28.135Z,86.00
2017-08-18T12:48:30.346Z,85.60
2017-08-18T12:51:31.711Z,85.60
2017-08-18T12:54:33.109Z,86.50
2017-08-18T12:57:34.447Z,84.70
2017-08-18T13:00:35.847Z,85.80
2017-08-18T13:03:37.255Z,86.20
2017-08-18T13:06:39.409Z,86.30
2017-08-18T13:09:40.820Z,86.30
2017-08-18T13:12:42.168Z,86.30
2017-08-18T13:15:43.560Z,85.30
2017-08-18T13:18:44.935Z,87.10
2017-08-18T13:21:47.049Z,83.90
2017-08-18T13:24:48.364Z,83.80
2017-08-18T13:27:49.791Z,83.40
2017-08-18T13:30:51.880Z,88.50
2017-08-18T13:33:53.285Z,87.80
2017-08-18T13:36:54.635Z,88.00
2017-08-18T13:39:56.037Z,88.20
2017-08-18T13:42:57.639Z,85.20
2017-08-18T13:45:59.003Z,85.20
2017-08-18T13:49:00.414Z,86.40
2017-08-18T13:52:01.837Z,86.10
2017-08-18T13:55:03.984Z,88.00
2017-08-18T13:58:05.347Z,87.90
2017-08-18T14:01:07.503Z,87.30
2017-08-18T14:04:08.914Z,87.10
2017-08-18T14:07:10.297Z,86.40
2017-08-18T14:10:11.805Z,86.10
2017-08-18T14:13:13.696Z,84.40
2017-08-18T14:16:15.161Z,83.40
2017-08-18T14:19:16.544Z,83.90
2017-08-18T14:22:17.967Z,84.80
2017-08-18T14:25:25.405Z,85.00
2017-08-18T14:28:27.730Z,83.50
2017-08-18T14:31:29.494Z,83.40
2017-08-18T14:34:30.869Z,82.50
2017-08-18T14:37:32.449Z,83.50
2017-08-18T14:40:33.833Z,83.90
2017-08-18T14:43:35.252Z,85.80
2017-08-18T14:46:36.609Z,84.60
2017-08-18T14:49:38.072Z,84.90
2017-08-18T14:52:39.435Z,85.00
2017-08-18T14:55:40.851Z,85.20
2017-08-18T14:58:42.571Z,84.60
2017-08-18T15:01:43.913Z,84.00
2017-08-18T15:04:45.434Z,84.30
2017-08-18T15:07:46.836Z,84.60
2017-08-18T15:10:48.287Z,83.90
2017-08-18T15:13:49.644Z,84.50
2017-08-18T15:16:51.048Z,84.10
2017-08-18T15:19:52.401Z,85.20
2017-08-18T15:22:54.073Z,85.20
2017-08-18T15:25:56.468Z,85.20
2017-08-18T15:28:58.498Z,85.00
2017-08-18T15:31:59.991Z,85.10
2017-08-18T15:35:01.438Z,84.00
2017-08-18T15:38:02.966Z,84.90
2017-08-18T15:41:04.422Z,82.60
2017-08-18T15:44:06.589Z,84.70
2017-08-18T15:47:08.804Z,83.70
2017-08-18T15:50:11.188Z,83.60
2017-08-18T15:53:12.597Z,83.80
2017-08-18T15:56:15.842Z,83.40
2017-08-18T15:59:17.466Z,83.70
2017-08-18T16:02:19.638Z,83.40
2017-08-18T16:05:22.747Z,83.40
2017-08-18T16:08:25.733Z,83.50
2017-08-18T16:11:27.200Z,83.70
2017-08-18T16:14:29.305Z,83.70
2017-08-18T16:17:31.447Z,83.10
2017-08-18T16:20:33.443Z,83.60
2017-08-18T16:23:36.176Z,83.20
2017-08-18T16:26:37.621Z,82.70
2017-08-18T16:29:39.919Z,84.00
2017-08-18T16:32:41.791Z,83.10
2017-08-18T16:35:44.233Z,83.00
2017-08-18T16:38:45.638Z,82.60
2017-08-18T16:41:47.775Z,83.00
2017-08-18T16:44:50.618Z,83.00
2017-08-18T16:47:51.988Z,83.40
2017-08-18T16:50:53.561Z,83.40
2017-08-18T16:53:55.097Z,83.10
2017-08-18T16:56:57.095Z,83.70
2017-08-18T16:59:59.360Z,82.80
2017-08-18T17:03:00.785Z,83.40
2017-08-18T17:06:02.364Z,82.60
2017-08-18T17:09:03.844Z,83.70
2017-08-18T17:12:06.012Z,84.20
2017-08-18T17:15:09.168Z,83.90
2017-08-18T17:18:10.931Z,83.90
2017-08-18T17:21:12.373Z,84.00
2017-08-18T17:24:14.441Z,84.10
2017-08-18T17:27:15.860Z,83.50
2017-08-18T17:30:17.315Z,83.40
2017-08-18T17:33:18.732Z,84.20
2017-08-18T17:36:21.287Z,84.30
2017-08-18T17:39:22.912Z,84.10
2017-08-18T17:42:25.188Z,83.10
2017-08-18T17:45:27.584Z,83.40
2017-08-18T17:48:29.685Z,83.80
2017-08-18T17:51:31.330Z,83.80
2017-08-18T17:54:33.465Z,83.40
2017-08-18T17:57:35.065Z,83.40
2017-08-18T18:00:37.854Z,83.60
2017-08-18T18:03:40.109Z,83.70
2017-08-18T18:06:42.713Z,83.60
2017-08-18T18:09:44.485Z,83.50
2017-08-18T18:12:45.855Z,83.80
2017-08-18T18:15:47.289Z,83.50
2017-08-18T18:18:49.042Z,83.60
2017-08-18T18:21:51.937Z,83.60
2017-08-18T18:24:53.967Z,83.20
2017-08-18T18:27:57.518Z,83.70
2017-08-18T18:30:59.365Z,83.60
2017-08-18T18:34:01.161Z,83.50
2017-08-18T18:37:03.901Z,83.40
2017-08-18T18:40:05.682Z,83.30
2017-08-18T18:43:07.828Z,83.00
2017-08-18T18:46:10.581Z,83.50
2017-08-18T18:49:14.107Z,83.30
2017-08-18T18:52:16.128Z,83.10
2017-08-18T18:55:18.930Z,83.60
2017-08-18T18:58:20.800Z,83.50
2017-08-18T19:01:23.143Z,83.30
2017-08-18T19:04:25.211Z,83.00
2017-08-18T19:07:27.271Z,83.20
2017-08-18T19:10:29.317Z,82.00
2017-08-18T19:13:30.813Z,82.20
2017-08-18T19:16:32.938Z,82.60
2017-08-18T19:19:35.488Z,82.60
2017-08-18T19:22:36.919Z,82.70
2017-08-18T19:25:38.343Z,82.90
2017-08-18T19:28:39.785Z,83.90
2017-08-18T19:31:43.432Z,83.90
2017-08-18T19:34:46.207Z,83.80
2017-08-18T19:37:48.370Z,84.00
2017-08-18T19:40:52.031Z,83.90
2017-08-18T19:43:53.772Z,83.80
2017-08-18T19:46:56.028Z,83.70
2017-08-18T19:50:00.194Z,83.70
2017-08-18T19:53:03.235Z,84.40
2017-08-18T19:56:06.069Z,83.80
2017-08-18T19:59:10.049Z,83.40
2017-08-18T20:02:11.469Z,83.60
2017-08-18T20:05:14.733Z,83.20
2017-08-18T20:08:16.850Z,83.20
2017-08-18T20:11:18.739Z,83.20
2017-08-18T20:14:23.516Z,83.40
2017-08-18T20:17:31.878Z,84.10
2017-08-18T20:20:36.028Z,83.20
2017-08-18T20:23:39.555Z,83.50
2017-08-18T20:26:42.016Z,83.70
2017-08-18T20:29:43.417Z,84.40
2017-08-18T20:32:44.831Z,83.30
2017-08-18T20:35:47.461Z,83.30
2017-08-18T20:38:48.982Z,83.80
2017-08-18T20:41:51.198Z,86.30
2017-08-18T20:44:52.829Z,85.70
2017-08-18T20:47:54.305Z,82.80
2017-08-18T20:50:55.850Z,82.40
2017-08-18T20:53:57.323Z,80.80
2017-08-18T20:56:58.887Z,79.70
2017-08-18T21:00:00.373Z,79.80
2017-08-18T21:03:01.967Z,80.30
2017-08-18T21:06:03.841Z,80.00
2017-08-18T21:09:05.276Z,79.80
2017-08-18T21:12:06.806Z,79.20
2017-08-18T21:15:09.047Z,79.80
2017-08-18T21:18:10.494Z,79.40
2017-08-18T21:21:11.932Z,78.70
2017-08-18T21:24:13.505Z,79.50
2017-08-18T21:27:14.933Z,79.80
2017-08-18T21:30:16.402Z,79.70
2017-08-18T21:33:18.009Z,79.80
2017-08-18T21:36:20.172Z,79.80
2017-08-18T21:39:22.820Z,79.40
2017-08-18T21:42:24.197Z,79.20
2017-08-18T21:45:26.398Z,80.20
2017-08-18T21:48:27.792Z,80.20
2017-08-18T21:51:29.241Z,79.90
2017-08-18T21:54:30.640Z,79.90
2017-08-18T21:57:32.065Z,80.60
2017-08-18T22:00:33.528Z,80.10
2017-08-18T22:03:35.692Z,81.60
2017-08-18T22:06:37.862Z,81.00
2017-08-18T22:09:39.958Z,81.00
2017-08-18T22:12:41.418Z,80.90
2017-08-18T22:15:42.793Z,80.70
2017-08-18T22:18:44.267Z,80.60
2017-08-18T22:21:45.977Z,80.00
2017-08-18T22:24:47.347Z,80.20
2017-08-18T22:27:48.761Z,80.20
2017-08-18T22:30:50.896Z,80.70
2017-08-18T22:37:00.413Z,80.50
2017-08-18T22:40:01.785Z,79.80
2017-08-18T22:43:03.181Z,80.00
2017-08-18T22:46:05.260Z,78.60
2017-08-18T22:49:07.512Z,78.90
2017-08-18T22:52:09.695Z,79.80
2017-08-18T22:55:11.077Z,79.70
2017-08-18T22:58:12.519Z,79.70
2017-08-18T23:01:13.911Z,79.80
2017-08-18T23:04:15.327Z,79.70
2017-08-18T23:07:16.731Z,78.90
2017-08-18T23:10:18.275Z,78.30
2017-08-18T23:13:19.647Z,78.40
2017-08-18T23:16:21.933Z,78.80
2017-08-18T23:19:24.028Z,78.10
2017-08-18T23:22:25.848Z,78.00
2017-08-18T23:25:27.261Z,76.90
2017-08-18T23:28:28.649Z,78.30
2017-08-18T23:31:30.515Z,78.40
2017-08-18T23:34:33.146Z,78.70
2017-08-18T23:37:35.179Z,78.70
2017-08-18T23:40:36.624Z,78.40
2017-08-18T23:43:39.458Z,78.70
2017-08-18T23:46:40.834Z,79.40
2017-08-18T23:49:42.228Z,78.30
2017-08-18T23:52:44.155Z,77.80
2017-08-18T23:55:46.658Z,78.20
2017-08-18T23:58:48.516Z,78.00
